sensor_id;sensor_type;location;lat;lon;timestamp;P1;durP1;ratioP1;P2;durP2;ratioP2
37477;SDS011;23334;54.316;10.182;2023-04-12T00:00:57;18.90;;;5.40;;
37477;SDS011;23334;54.316;10.182;2023-04-12T00:03:23;16.70;;;4.60;;
37477;SDS011;23334;54.316;10.182;2023-04-12T00:05:49;15.47;;;3.90;;
37477;SDS011;23334;54.316;10.182;2023-04-12T00:08:18;19.40;;;4.80;;
37477;SDS011;23334;54.316;10.182;2023-04-12T00:10:48;13.33;;;4.03;;
37477;SDS011;23334;54.316;10.182;2023-04-12T00:13:14;24.07;;;4.43;;
37477;SDS011;23334;54.316;10.182;2023-04-12T00:15:41;20.50;;;4.40;;
37477;SDS011;23334;54.316;10.182;2023-04-12T00:18:06;17.47;;;4.27;;
37477;SDS011;23334;54.316;10.182;2023-04-12T00:20:32;11.00;;;3.50;;
37477;SDS011;23334;54.316;10.182;2023-04-12T00:22:57;9.90;;;4.27;;
37477;SDS011;23334;54.316;10.182;2023-04-12T00:25:23;10.07;;;2.97;;
37477;SDS011;23334;54.316;10.182;2023-04-12T00:27:48;13.10;;;3.60;;
37477;SDS011;23334;54.316;10.182;2023-04-12T00:30:14;6.83;;;3.63;;
37477;SDS011;23334;54.316;10.182;2023-04-12T00:32:41;16.43;;;3.60;;
37477;SDS011;23334;54.316;10.182;2023-04-12T00:35:06;12.00;;;4.20;;
37477;SDS011;23334;54.316;10.182;2023-04-12T00:37:32;13.03;;;3.83;;
37477;SDS011;23334;54.316;10.182;2023-04-12T00:39:58;16.70;;;4.40;;
37477;SDS011;23334;54.316;10.182;2023-04-12T00:42:23;11.03;;;3.50;;
37477;SDS011;23334;54.316;10.182;2023-04-12T00:44:48;21.57;;;4.07;;
37477;SDS011;23334;54.316;10.182;2023-04-12T00:47:14;10.80;;;4.97;;
37477;SDS011;23334;54.316;10.182;2023-04-12T00:49:40;4.70;;;2.90;;
37477;SDS011;23334;54.316;10.182;2023-04-12T00:52:06;10.03;;;3.93;;
37477;SDS011;23334;54.316;10.182;2023-04-12T00:54:33;14.53;;;4.07;;
37477;SDS011;23334;54.316;10.182;2023-04-12T00:57:00;8.30;;;4.27;;
37477;SDS011;23334;54.316;10.182;2023-04-12T00:59:26;9.33;;;4.37;;
37477;SDS011;23334;54.316;10.182;2023-04-12T01:01:55;4.87;;;4.13;;
37477;SDS011;23334;54.316;10.182;2023-04-12T01:04:21;14.63;;;3.57;;
37477;SDS011;23334;54.316;10.182;2023-04-12T01:14:59;10.40;;;3.80;;
37477;SDS011;23334;54.316;10.182;2023-04-12T01:17:31;11.63;;;3.77;;
37477;SDS011;23334;54.316;10.182;2023-04-12T01:20:06;13.47;;;5.13;;
37477;SDS011;23334;54.316;10.182;2023-04-12T01:28:13;15.67;;;4.80;;
37477;SDS011;23334;54.316;10.182;2023-04-12T01:30:41;16.23;;;6.30;;
37477;SDS011;23334;54.316;10.182;2023-04-12T01:33:09;14.33;;;5.63;;
37477;SDS011;23334;54.316;10.182;2023-04-12T01:35:36;17.67;;;6.37;;
37477;SDS011;23334;54.316;10.182;2023-04-12T01:38:02;14.97;;;6.17;;
37477;SDS011;23334;54.316;10.182;2023-04-12T01:40:29;10.20;;;5.93;;
37477;SDS011;23334;54.316;10.182;2023-04-12T01:43:05;13.30;;;5.87;;
37477;SDS011;23334;54.316;10.182;2023-04-12T01:45:31;10.13;;;5.40;;
37477;SDS011;23334;54.316;10.182;2023-04-12T01:47:57;22.43;;;5.60;;
37477;SDS011;23334;54.316;10.182;2023-04-12T01:50:26;17.07;;;7.03;;
37477;SDS011;23334;54.316;10.182;2023-04-12T01:53:18;14.50;;;6.30;;
37477;SDS011;23334;54.316;10.182;2023-04-12T01:55:52;18.43;;;6.77;;
37477;SDS011;23334;54.316;10.182;2023-04-12T01:58:24;19.70;;;7.20;;
37477;SDS011;23334;54.316;10.182;2023-04-12T02:00:50;23.90;;;8.30;;
37477;SDS011;23334;54.316;10.182;2023-04-12T02:03:18;13.03;;;6.23;;
37477;SDS011;23334;54.316;10.182;2023-04-12T02:05:45;29.77;;;6.90;;
37477;SDS011;23334;54.316;10.182;2023-04-12T02:08:11;17.67;;;6.07;;
37477;SDS011;23334;54.316;10.182;2023-04-12T02:10:37;30.40;;;8.13;;
37477;SDS011;23334;54.316;10.182;2023-04-12T02:13:04;21.17;;;8.20;;
37477;SDS011;23334;54.316;10.182;2023-04-12T02:15:30;30.87;;;8.10;;
37477;SDS011;23334;54.316;10.182;2023-04-12T02:17:56;26.57;;;8.27;;
37477;SDS011;23334;54.316;10.182;2023-04-12T02:20:23;25.13;;;7.47;;
37477;SDS011;23334;54.316;10.182;2023-04-12T02:22:49;18.33;;;7.90;;
37477;SDS011;23334;54.316;10.182;2023-04-12T02:25:15;30.40;;;9.63;;
37477;SDS011;23334;54.316;10.182;2023-04-12T02:27:43;17.60;;;7.93;;
37477;SDS011;23334;54.316;10.182;2023-04-12T02:30:10;37.47;;;10.43;;
37477;SDS011;23334;54.316;10.182;2023-04-12T02:32:36;21.80;;;8.60;;
37477;SDS011;23334;54.316;10.182;2023-04-12T02:35:07;32.20;;;8.63;;
37477;SDS011;23334;54.316;10.182;2023-04-12T02:37:37;20.37;;;10.27;;
37477;SDS011;23334;54.316;10.182;2023-04-12T02:40:03;18.67;;;8.00;;
37477;SDS011;23334;54.316;10.182;2023-04-12T02:42:30;25.23;;;8.87;;
37477;SDS011;23334;54.316;10.182;2023-04-12T02:44:56;25.50;;;8.80;;
37477;SDS011;23334;54.316;10.182;2023-04-12T02:47:21;21.47;;;8.87;;
37477;SDS011;23334;54.316;10.182;2023-04-12T02:49:52;21.33;;;6.87;;
37477;SDS011;23334;54.316;10.182;2023-04-12T02:52:17;28.47;;;9.27;;
37477;SDS011;23334;54.316;10.182;2023-04-12T02:54:43;22.27;;;8.10;;
37477;SDS011;23334;54.316;10.182;2023-04-12T02:57:08;16.40;;;9.27;;
37477;SDS011;23334;54.316;10.182;2023-04-12T02:59:35;25.57;;;8.20;;
37477;SDS011;23334;54.316;10.182;2023-04-12T03:02:01;28.77;;;8.67;;
37477;SDS011;23334;54.316;10.182;2023-04-12T03:04:26;27.90;;;8.83;;
37477;SDS011;23334;54.316;10.182;2023-04-12T03:06:54;19.03;;;8.87;;
37477;SDS011;23334;54.316;10.182;2023-04-12T03:09:20;22.73;;;9.93;;
37477;SDS011;23334;54.316;10.182;2023-04-12T03:11:46;21.33;;;9.20;;
37477;SDS011;23334;54.316;10.182;2023-04-12T03:14:12;23.70;;;9.20;;
37477;SDS011;23334;54.316;10.182;2023-04-12T03:16:39;25.40;;;9.63;;
37477;SDS011;23334;54.316;10.182;2023-04-12T03:19:04;22.47;;;8.00;;
37477;SDS011;23334;54.316;10.182;2023-04-12T03:21:30;19.60;;;8.80;;
37477;SDS011;23334;54.316;10.182;2023-04-12T03:23:57;17.27;;;8.50;;
37477;SDS011;23334;54.316;10.182;2023-04-12T03:26:22;21.40;;;8.27;;
37477;SDS011;23334;54.316;10.182;2023-04-12T03:28:50;14.00;;;7.00;;
37477;SDS011;23334;54.316;10.182;2023-04-12T03:31:16;31.97;;;9.03;;
37477;SDS011;23334;54.316;10.182;2023-04-12T03:33:44;14.40;;;7.67;;
37477;SDS011;23334;54.316;10.182;2023-04-12T03:36:10;18.50;;;6.33;;
37477;SDS011;23334;54.316;10.182;2023-04-12T03:38:35;20.80;;;6.67;;
37477;SDS011;23334;54.316;10.182;2023-04-12T03:41:01;10.57;;;6.83;;
37477;SDS011;23334;54.316;10.182;2023-04-12T03:43:26;14.10;;;6.17;;
37477;SDS011;23334;54.316;10.182;2023-04-12T03:45:52;14.97;;;6.93;;
37477;SDS011;23334;54.316;10.182;2023-04-12T03:48:18;10.70;;;5.43;;
37477;SDS011;23334;54.316;10.182;2023-04-12T03:50:43;12.70;;;5.70;;
37477;SDS011;23334;54.316;10.182;2023-04-12T03:53:09;8.53;;;4.70;;
37477;SDS011;23334;54.316;10.182;2023-04-12T03:55:35;16.93;;;5.80;;
37477;SDS011;23334;54.316;10.182;2023-04-12T03:58:01;12.53;;;5.00;;
37477;SDS011;23334;54.316;10.182;2023-04-12T04:00:27;16.53;;;6.60;;
37477;SDS011;23334;54.316;10.182;2023-04-12T04:02:53;15.43;;;5.80;;
37477;SDS011;23334;54.316;10.182;2023-04-12T04:05:18;12.63;;;4.67;;
37477;SDS011;23334;54.316;10.182;2023-04-12T04:07:44;8.87;;;4.80;;
37477;SDS011;23334;54.316;10.182;2023-04-12T04:10:09;15.57;;;5.57;;
37477;SDS011;23334;54.316;10.182;2023-04-12T04:12:35;10.20;;;5.37;;
37477;SDS011;23334;54.316;10.182;2023-04-12T04:15:01;11.93;;;6.20;;
37477;SDS011;23334;54.316;10.182;2023-04-12T04:17:26;8.73;;;5.27;;
37477;SDS011;23334;54.316;10.182;2023-04-12T04:19:51;4.67;;;4.17;;
37477;SDS011;23334;54.316;10.182;2023-04-12T04:22:17;11.07;;;4.60;;
37477;SDS011;23334;54.316;10.182;2023-04-12T04:24:45;14.00;;;5.10;;
37477;SDS011;23334;54.316;10.182;2023-04-12T04:27:12;12.23;;;4.70;;
37477;SDS011;23334;54.316;10.182;2023-04-12T04:29:39;10.67;;;4.40;;
37477;SDS011;23334;54.316;10.182;2023-04-12T04:32:09;9.67;;;4.77;;
37477;SDS011;23334;54.316;10.182;2023-04-12T04:34:35;6.83;;;3.93;;
37477;SDS011;23334;54.316;10.182;2023-04-12T04:37:01;13.20;;;4.00;;
37477;SDS011;23334;54.316;10.182;2023-04-12T04:39:26;5.30;;;3.30;;
37477;SDS011;23334;54.316;10.182;2023-04-12T04:41:52;5.00;;;3.90;;
37477;SDS011;23334;54.316;10.182;2023-04-12T04:44:18;4.80;;;3.60;;
37477;SDS011;23334;54.316;10.182;2023-04-12T04:46:44;14.90;;;4.43;;
37477;SDS011;23334;54.316;10.182;2023-04-12T04:49:10;5.20;;;3.60;;
37477;SDS011;23334;54.316;10.182;2023-04-12T04:51:35;9.13;;;3.43;;
37477;SDS011;23334;54.316;10.182;2023-04-12T04:54:01;9.63;;;3.50;;
37477;SDS011;23334;54.316;10.182;2023-04-12T04:56:26;17.53;;;4.17;;
37477;SDS011;23334;54.316;10.182;2023-04-12T04:58:52;11.40;;;4.30;;
37477;SDS011;23334;54.316;10.182;2023-04-12T05:01:18;6.97;;;3.80;;
37477;SDS011;23334;54.316;10.182;2023-04-12T05:03:43;10.43;;;3.40;;
37477;SDS011;23334;54.316;10.182;2023-04-12T05:06:09;8.27;;;3.47;;
37477;SDS011;23334;54.316;10.182;2023-04-12T05:08:35;7.53;;;3.10;;
37477;SDS011;23334;54.316;10.182;2023-04-12T05:11:01;16.03;;;3.00;;
37477;SDS011;23334;54.316;10.182;2023-04-12T05:13:27;10.83;;;2.83;;
37477;SDS011;23334;54.316;10.182;2023-04-12T05:15:52;7.07;;;3.17;;
37477;SDS011;23334;54.316;10.182;2023-04-12T05:18:17;7.80;;;3.10;;
37477;SDS011;23334;54.316;10.182;2023-04-12T05:20:43;10.53;;;3.17;;
37477;SDS011;23334;54.316;10.182;2023-04-12T05:23:09;3.97;;;2.43;;
37477;SDS011;23334;54.316;10.182;2023-04-12T05:25:35;8.20;;;4.90;;
37477;SDS011;23334;54.316;10.182;2023-04-12T05:28:01;2.70;;;2.40;;
37477;SDS011;23334;54.316;10.182;2023-04-12T05:30:26;3.67;;;2.50;;
37477;SDS011;23334;54.316;10.182;2023-04-12T05:32:53;4.43;;;2.67;;
37477;SDS011;23334;54.316;10.182;2023-04-12T05:35:18;7.23;;;2.40;;
37477;SDS011;23334;54.316;10.182;2023-04-12T05:37:43;9.50;;;3.30;;
37477;SDS011;23334;54.316;10.182;2023-04-12T05:40:09;3.27;;;2.47;;
37477;SDS011;23334;54.316;10.182;2023-04-12T05:42:35;6.40;;;3.00;;
37477;SDS011;23334;54.316;10.182;2023-04-12T05:45:01;3.27;;;2.10;;
37477;SDS011;23334;54.316;10.182;2023-04-12T05:47:30;3.10;;;1.87;;
37477;SDS011;23334;54.316;10.182;2023-04-12T05:49:56;5.93;;;2.00;;
37477;SDS011;23334;54.316;10.182;2023-04-12T05:52:21;2.43;;;1.80;;
37477;SDS011;23334;54.316;10.182;2023-04-12T05:54:47;6.37;;;1.67;;
37477;SDS011;23334;54.316;10.182;2023-04-12T05:57:12;8.73;;;3.00;;
37477;SDS011;23334;54.316;10.182;2023-04-12T05:59:39;2.47;;;1.70;;
37477;SDS011;23334;54.316;10.182;2023-04-12T06:02:04;4.00;;;1.80;;
37477;SDS011;23334;54.316;10.182;2023-04-12T06:04:31;3.07;;;1.57;;
37477;SDS011;23334;54.316;10.182;2023-04-12T06:06:56;2.17;;;1.30;;
37477;SDS011;23334;54.316;10.182;2023-04-12T06:09:22;2.03;;;1.93;;
37477;SDS011;23334;54.316;10.182;2023-04-12T06:11:47;4.37;;;1.80;;
37477;SDS011;23334;54.316;10.182;2023-04-12T06:14:13;1.40;;;1.00;;
37477;SDS011;23334;54.316;10.182;2023-04-12T06:16:38;3.20;;;1.40;;
37477;SDS011;23334;54.316;10.182;2023-04-12T06:19:04;2.87;;;1.47;;
37477;SDS011;23334;54.316;10.182;2023-04-12T06:21:29;2.07;;;1.10;;
37477;SDS011;23334;54.316;10.182;2023-04-12T06:23:55;10.83;;;1.47;;
37477;SDS011;23334;54.316;10.182;2023-04-12T06:26:21;2.03;;;0.93;;
37477;SDS011;23334;54.316;10.182;2023-04-12T06:28:46;4.03;;;1.30;;
37477;SDS011;23334;54.316;10.182;2023-04-12T06:31:11;7.60;;;1.63;;
37477;SDS011;23334;54.316;10.182;2023-04-12T06:33:37;1.77;;;1.30;;
37477;SDS011;23334;54.316;10.182;2023-04-12T06:36:03;3.13;;;1.07;;
37477;SDS011;23334;54.316;10.182;2023-04-12T06:38:28;2.87;;;1.50;;
37477;SDS011;23334;54.316;10.182;2023-04-12T06:40:54;4.50;;;1.23;;
37477;SDS011;23334;54.316;10.182;2023-04-12T06:43:20;5.30;;;1.80;;
37477;SDS011;23334;54.316;10.182;2023-04-12T06:45:46;4.30;;;1.30;;
37477;SDS011;23334;54.316;10.182;2023-04-12T06:48:13;6.70;;;1.30;;
37477;SDS011;23334;54.316;10.182;2023-04-12T06:50:39;3.53;;;1.30;;
37477;SDS011;23334;54.316;10.182;2023-04-12T06:53:05;4.20;;;1.20;;
37477;SDS011;23334;54.316;10.182;2023-04-12T06:55:30;3.67;;;1.40;;
37477;SDS011;23334;54.316;10.182;2023-04-12T06:57:56;1.97;;;1.23;;
37477;SDS011;23334;54.316;10.182;2023-04-12T07:00:21;1.33;;;0.87;;
37477;SDS011;23334;54.316;10.182;2023-04-12T07:02:47;3.20;;;1.40;;
37477;SDS011;23334;54.316;10.182;2023-04-12T07:05:13;2.60;;;0.93;;
37477;SDS011;23334;54.316;10.182;2023-04-12T07:07:38;4.00;;;1.57;;
37477;SDS011;23334;54.316;10.182;2023-04-12T07:10:04;4.90;;;1.43;;
37477;SDS011;23334;54.316;10.182;2023-04-12T07:12:30;1.60;;;1.10;;
37477;SDS011;23334;54.316;10.182;2023-04-12T07:14:55;2.83;;;1.60;;
37477;SDS011;23334;54.316;10.182;2023-04-12T07:17:21;4.00;;;1.53;;
37477;SDS011;23334;54.316;10.182;2023-04-12T07:19:48;2.03;;;1.10;;
37477;SDS011;23334;54.316;10.182;2023-04-12T07:22:14;3.77;;;1.80;;
37477;SDS011;23334;54.316;10.182;2023-04-12T07:24:39;5.30;;;1.13;;
37477;SDS011;23334;54.316;10.182;2023-04-12T07:27:05;4.60;;;1.63;;
37477;SDS011;23334;54.316;10.182;2023-04-12T07:29:30;3.07;;;1.37;;
37477;SDS011;23334;54.316;10.182;2023-04-12T07:31:57;4.17;;;1.00;;
37477;SDS011;23334;54.316;10.182;2023-04-12T07:34:23;2.00;;;1.13;;
37477;SDS011;23334;54.316;10.182;2023-04-12T07:36:49;2.30;;;1.43;;
37477;SDS011;23334;54.316;10.182;2023-04-12T07:39:14;5.93;;;1.80;;
37477;SDS011;23334;54.316;10.182;2023-04-12T07:41:41;2.20;;;1.70;;
37477;SDS011;23334;54.316;10.182;2023-04-12T07:44:10;7.13;;;2.23;;
37477;SDS011;23334;54.316;10.182;2023-04-12T07:46:35;6.73;;;2.10;;
37477;SDS011;23334;54.316;10.182;2023-04-12T07:49:01;5.37;;;1.47;;
37477;SDS011;23334;54.316;10.182;2023-04-12T07:51:27;2.60;;;1.63;;
37477;SDS011;23334;54.316;10.182;2023-04-12T07:53:52;6.67;;;1.90;;
37477;SDS011;23334;54.316;10.182;2023-04-12T07:56:18;5.90;;;1.80;;
37477;SDS011;23334;54.316;10.182;2023-04-12T07:58:44;2.33;;;1.30;;
37477;SDS011;23334;54.316;10.182;2023-04-12T08:01:10;7.10;;;1.77;;
37477;SDS011;23334;54.316;10.182;2023-04-12T08:03:37;4.37;;;1.40;;
37477;SDS011;23334;54.316;10.182;2023-04-12T08:06:03;3.33;;;1.43;;
37477;SDS011;23334;54.316;10.182;2023-04-12T08:08:29;5.20;;;1.60;;
37477;SDS011;23334;54.316;10.182;2023-04-12T08:10:54;2.20;;;1.30;;
37477;SDS011;23334;54.316;10.182;2023-04-12T08:13:20;2.27;;;1.17;;
37477;SDS011;23334;54.316;10.182;2023-04-12T08:15:46;3.37;;;1.27;;
37477;SDS011;23334;54.316;10.182;2023-04-12T08:18:11;1.40;;;0.90;;
37477;SDS011;23334;54.316;10.182;2023-04-12T08:20:37;1.67;;;1.00;;
37477;SDS011;23334;54.316;10.182;2023-04-12T08:23:08;5.40;;;1.20;;
37477;SDS011;23334;54.316;10.182;2023-04-12T08:25:34;1.33;;;0.70;;
37477;SDS011;23334;54.316;10.182;2023-04-12T08:28:00;2.50;;;0.80;;
37477;SDS011;23334;54.316;10.182;2023-04-12T08:30:26;4.87;;;1.40;;
37477;SDS011;23334;54.316;10.182;2023-04-12T08:32:52;2.07;;;0.80;;
37477;SDS011;23334;54.316;10.182;2023-04-12T08:35:18;1.57;;;1.00;;
37477;SDS011;23334;54.316;10.182;2023-04-12T08:37:43;3.00;;;1.00;;
37477;SDS011;23334;54.316;10.182;2023-04-12T08:40:09;3.03;;;1.33;;
37477;SDS011;23334;54.316;10.182;2023-04-12T08:42:35;2.70;;;1.30;;
37477;SDS011;23334;54.316;10.182;2023-04-12T08:45:05;2.80;;;1.30;;
37477;SDS011;23334;54.316;10.182;2023-04-12T08:47:36;1.47;;;1.00;;
37477;SDS011;23334;54.316;10.182;2023-04-12T08:50:03;3.60;;;1.00;;
37477;SDS011;23334;54.316;10.182;2023-04-12T08:52:33;5.60;;;1.00;;
37477;SDS011;23334;54.316;10.182;2023-04-12T08:55:03;1.40;;;1.13;;
37477;SDS011;23334;54.316;10.182;2023-04-12T08:57:29;4.60;;;1.10;;
37477;SDS011;23334;54.316;10.182;2023-04-12T08:59:56;2.37;;;0.90;;
37477;SDS011;23334;54.316;10.182;2023-04-12T09:02:24;1.60;;;1.50;;
37477;SDS011;23334;54.316;10.182;2023-04-12T09:04:50;4.73;;;1.57;;
37477;SDS011;23334;54.316;10.182;2023-04-12T09:07:17;1.27;;;1.17;;
37477;SDS011;23334;54.316;10.182;2023-04-12T09:09:44;4.07;;;1.23;;
37477;SDS011;23334;54.316;10.182;2023-04-12T09:12:10;2.30;;;0.67;;
37477;SDS011;23334;54.316;10.182;2023-04-12T09:14:37;1.37;;;1.00;;
37477;SDS011;23334;54.316;10.182;2023-04-12T09:17:03;2.07;;;1.10;;
37477;SDS011;23334;54.316;10.182;2023-04-12T09:19:33;2.67;;;0.90;;
37477;SDS011;23334;54.316;10.182;2023-04-12T09:21:59;5.90;;;1.10;;
37477;SDS011;23334;54.316;10.182;2023-04-12T09:24:26;4.03;;;1.33;;
37477;SDS011;23334;54.316;10.182;2023-04-12T09:27:05;2.30;;;1.27;;
37477;SDS011;23334;54.316;10.182;2023-04-12T09:29:31;1.43;;;0.87;;
37477;SDS011;23334;54.316;10.182;2023-04-12T09:32:02;2.13;;;1.10;;
37477;SDS011;23334;54.316;10.182;2023-04-12T09:34:32;3.07;;;1.63;;
37477;SDS011;23334;54.316;10.182;2023-04-12T09:36:59;5.03;;;1.20;;
37477;SDS011;23334;54.316;10.182;2023-04-12T09:39:37;2.33;;;1.20;;
37477;SDS011;23334;54.316;10.182;2023-04-12T09:42:05;5.17;;;1.50;;
37477;SDS011;23334;54.316;10.182;2023-04-12T09:44:31;1.80;;;1.00;;
37477;SDS011;23334;54.316;10.182;2023-04-12T09:46:58;2.60;;;1.40;;
37477;SDS011;23334;54.316;10.182;2023-04-12T09:49:36;1.37;;;1.27;;
37477;SDS011;23334;54.316;10.182;2023-04-12T09:52:04;2.93;;;1.20;;
37477;SDS011;23334;54.316;10.182;2023-04-12T09:54:31;4.30;;;1.10;;
37477;SDS011;23334;54.316;10.182;2023-04-12T09:57:06;2.80;;;1.10;;
37477;SDS011;23334;54.316;10.182;2023-04-12T09:59:34;2.73;;;1.30;;
37477;SDS011;23334;54.316;10.182;2023-04-12T10:02:06;4.23;;;1.33;;
37477;SDS011;23334;54.316;10.182;2023-04-12T10:04:38;4.43;;;1.37;;
37477;SDS011;23334;54.316;10.182;2023-04-12T10:07:05;1.83;;;1.03;;
37477;SDS011;23334;54.316;10.182;2023-04-12T10:09:31;1.50;;;1.40;;
37477;SDS011;23334;54.316;10.182;2023-04-12T10:11:58;1.40;;;1.30;;
37477;SDS011;23334;54.316;10.182;2023-04-12T10:14:26;1.53;;;1.20;;
37477;SDS011;23334;54.316;10.182;2023-04-12T10:16:53;3.67;;;1.43;;
37477;SDS011;23334;54.316;10.182;2023-04-12T10:19:24;4.50;;;0.90;;
37477;SDS011;23334;54.316;10.182;2023-04-12T10:21:51;2.90;;;1.20;;
37477;SDS011;23334;54.316;10.182;2023-04-12T10:24:19;1.37;;;1.27;;
37477;SDS011;23334;54.316;10.182;2023-04-12T10:26:46;2.13;;;1.17;;
37477;SDS011;23334;54.316;10.182;2023-04-12T10:29:21;5.70;;;1.30;;
37477;SDS011;23334;54.316;10.182;2023-04-12T10:31:48;3.37;;;1.20;;
37477;SDS011;23334;54.316;10.182;2023-04-12T10:34:14;3.07;;;1.30;;
37477;SDS011;23334;54.316;10.182;2023-04-12T10:36:49;1.70;;;0.90;;
37477;SDS011;23334;54.316;10.182;2023-04-12T10:44:43;2.80;;;1.00;;
37477;SDS011;23334;54.316;10.182;2023-04-12T10:47:09;2.90;;;0.90;;
37477;SDS011;23334;54.316;10.182;2023-04-12T10:49:35;3.00;;;1.10;;
37477;SDS011;23334;54.316;10.182;2023-04-12T10:54:33;1.30;;;1.20;;
37477;SDS011;23334;54.316;10.182;2023-04-12T10:56:59;4.07;;;1.47;;
37477;SDS011;23334;54.316;10.182;2023-04-12T10:59:31;2.50;;;1.10;;
37477;SDS011;23334;54.316;10.182;2023-04-12T11:02:20;2.00;;;1.10;;
37477;SDS011;23334;54.316;10.182;2023-04-12T11:05:02;3.33;;;0.90;;
37477;SDS011;23334;54.316;10.182;2023-04-12T11:07:42;1.87;;;0.80;;
37477;SDS011;23334;54.316;10.182;2023-04-12T11:10:12;2.23;;;1.20;;
37477;SDS011;23334;54.316;10.182;2023-04-12T11:12:38;2.90;;;1.07;;
37477;SDS011;23334;54.316;10.182;2023-04-12T11:15:05;4.07;;;1.10;;
37477;SDS011;23334;54.316;10.182;2023-04-12T11:17:31;3.03;;;1.17;;
37477;SDS011;23334;54.316;10.182;2023-04-12T11:19:58;2.40;;;1.10;;
37477;SDS011;23334;54.316;10.182;2023-04-12T11:22:28;4.60;;;1.50;;
37477;SDS011;23334;54.316;10.182;2023-04-12T11:24:56;2.70;;;1.10;;
37477;SDS011;23334;54.316;10.182;2023-04-12T11:27:23;2.50;;;1.00;;
37477;SDS011;23334;54.316;10.182;2023-04-12T11:29:50;4.07;;;1.50;;
37477;SDS011;23334;54.316;10.182;2023-04-12T11:32:19;1.83;;;0.90;;
37477;SDS011;23334;54.316;10.182;2023-04-12T11:34:47;1.80;;;1.20;;
37477;SDS011;23334;54.316;10.182;2023-04-12T11:37:12;0.83;;;0.67;;
37477;SDS011;23334;54.316;10.182;2023-04-12T11:39:39;1.63;;;0.80;;
37477;SDS011;23334;54.316;10.182;2023-04-12T11:42:06;5.93;;;1.03;;
37477;SDS011;23334;54.316;10.182;2023-04-12T11:44:40;5.97;;;1.00;;
37477;SDS011;23334;54.316;10.182;2023-04-12T11:47:11;2.53;;;1.23;;
37477;SDS011;23334;54.316;10.182;2023-04-12T11:49:41;5.10;;;1.20;;
37477;SDS011;23334;54.316;10.182;2023-04-12T11:52:08;8.63;;;1.30;;
37477;SDS011;23334;54.316;10.182;2023-04-12T11:54:34;2.10;;;0.87;;
37477;SDS011;23334;54.316;10.182;2023-04-12T11:56:59;2.70;;;1.20;;
37477;SDS011;23334;54.316;10.182;2023-04-12T11:59:30;1.00;;;0.87;;
37477;SDS011;23334;54.316;10.182;2023-04-12T12:01:59;2.77;;;0.93;;
37477;SDS011;23334;54.316;10.182;2023-04-12T12:04:28;2.33;;;0.97;;
37477;SDS011;23334;54.316;10.182;2023-04-12T12:06:56;5.07;;;1.50;;
37477;SDS011;23334;54.316;10.182;2023-04-12T12:09:22;4.53;;;0.90;;
37477;SDS011;23334;54.316;10.182;2023-04-12T12:11:49;6.63;;;1.23;;
37477;SDS011;23334;54.316;10.182;2023-04-12T12:14:21;2.80;;;1.13;;
37477;SDS011;23334;54.316;10.182;2023-04-12T12:16:54;5.43;;;1.33;;
37477;SDS011;23334;54.316;10.182;2023-04-12T12:19:31;5.90;;;1.40;;
37477;SDS011;23334;54.316;10.182;2023-04-12T12:22:19;1.77;;;1.30;;
37477;SDS011;23334;54.316;10.182;2023-04-12T12:24:55;3.67;;;1.23;;
37477;SDS011;23334;54.316;10.182;2023-04-12T12:29:54;5.40;;;1.13;;
37477;SDS011;23334;54.316;10.182;2023-04-12T12:32:20;1.50;;;1.37;;
37477;SDS011;23334;54.316;10.182;2023-04-12T12:34:50;3.40;;;1.53;;
37477;SDS011;23334;54.316;10.182;2023-04-12T12:37:24;3.23;;;1.47;;
37477;SDS011;23334;54.316;10.182;2023-04-12T12:42:26;1.60;;;1.47;;
37477;SDS011;23334;54.316;10.182;2023-04-12T12:44:53;3.13;;;1.50;;
37477;SDS011;23334;54.316;10.182;2023-04-12T12:47:18;1.83;;;1.30;;
37477;SDS011;23334;54.316;10.182;2023-04-12T12:49:43;2.33;;;1.50;;
37477;SDS011;23334;54.316;10.182;2023-04-12T12:52:09;2.07;;;1.40;;
37477;SDS011;23334;54.316;10.182;2023-04-12T12:54:34;2.93;;;1.53;;
37477;SDS011;23334;54.316;10.182;2023-04-12T12:57:01;4.30;;;1.40;;
37477;SDS011;23334;54.316;10.182;2023-04-12T12:59:27;4.50;;;2.00;;
37477;SDS011;23334;54.316;10.182;2023-04-12T13:01:52;6.63;;;2.10;;
37477;SDS011;23334;54.316;10.182;2023-04-12T13:04:19;4.10;;;1.37;;
37477;SDS011;23334;54.316;10.182;2023-04-12T13:06:45;5.60;;;2.10;;
37477;SDS011;23334;54.316;10.182;2023-04-12T13:09:10;3.77;;;1.73;;
37477;SDS011;23334;54.316;10.182;2023-04-12T13:11:36;3.40;;;2.17;;
37477;SDS011;23334;54.316;10.182;2023-04-12T13:14:01;2.13;;;1.93;;
37477;SDS011;23334;54.316;10.182;2023-04-12T13:16:27;7.23;;;2.40;;
37477;SDS011;23334;54.316;10.182;2023-04-12T13:18:53;2.30;;;2.10;;
37477;SDS011;23334;54.316;10.182;2023-04-12T13:21:18;3.60;;;2.30;;
37477;SDS011;23334;54.316;10.182;2023-04-12T13:23:44;4.63;;;2.50;;
37477;SDS011;23334;54.316;10.182;2023-04-12T13:26:09;2.47;;;2.27;;
37477;SDS011;23334;54.316;10.182;2023-04-12T13:28:35;2.87;;;2.53;;
37477;SDS011;23334;54.316;10.182;2023-04-12T13:31:00;7.90;;;2.40;;
37477;SDS011;23334;54.316;10.182;2023-04-12T13:33:27;3.23;;;2.50;;
37477;SDS011;23334;54.316;10.182;2023-04-12T13:35:52;3.27;;;2.43;;
37477;SDS011;23334;54.316;10.182;2023-04-12T13:38:18;3.03;;;2.30;;
37477;SDS011;23334;54.316;10.182;2023-04-12T13:40:43;3.77;;;2.47;;
37477;SDS011;23334;54.316;10.182;2023-04-12T13:43:09;2.67;;;2.40;;
37477;SDS011;23334;54.316;10.182;2023-04-12T13:45:34;4.77;;;2.60;;
37477;SDS011;23334;54.316;10.182;2023-04-12T13:48:00;3.80;;;2.93;;
37477;SDS011;23334;54.316;10.182;2023-04-12T13:50:26;4.80;;;2.90;;
37477;SDS011;23334;54.316;10.182;2023-04-12T13:52:51;5.13;;;2.33;;
37477;SDS011;23334;54.316;10.182;2023-04-12T13:55:18;3.07;;;2.87;;
37477;SDS011;23334;54.316;10.182;2023-04-12T13:57:43;2.30;;;2.10;;
37477;SDS011;23334;54.316;10.182;2023-04-12T14:00:09;3.87;;;3.00;;
37477;SDS011;23334;54.316;10.182;2023-04-12T14:02:35;3.70;;;2.33;;
37477;SDS011;23334;54.316;10.182;2023-04-12T14:05:00;3.23;;;2.33;;
37477;SDS011;23334;54.316;10.182;2023-04-12T14:07:26;5.17;;;2.40;;
37477;SDS011;23334;54.316;10.182;2023-04-12T14:09:53;3.40;;;2.17;;
37477;SDS011;23334;54.316;10.182;2023-04-12T14:12:19;2.90;;;2.27;;
37477;SDS011;23334;54.316;10.182;2023-04-12T14:14:45;6.03;;;2.50;;
37477;SDS011;23334;54.316;10.182;2023-04-12T14:17:10;5.03;;;1.60;;
37477;SDS011;23334;54.316;10.182;2023-04-12T14:19:36;2.07;;;1.93;;
37477;SDS011;23334;54.316;10.182;2023-04-12T14:22:01;3.40;;;1.47;;
37477;SDS011;23334;54.316;10.182;2023-04-12T14:24:27;2.03;;;1.93;;
37477;SDS011;23334;54.316;10.182;2023-04-12T14:26:53;2.60;;;1.60;;
37477;SDS011;23334;54.316;10.182;2023-04-12T14:29:18;8.00;;;1.77;;
37477;SDS011;23334;54.316;10.182;2023-04-12T14:31:44;10.87;;;1.87;;
37477;SDS011;23334;54.316;10.182;2023-04-12T14:34:10;2.80;;;1.70;;
37477;SDS011;23334;54.316;10.182;2023-04-12T14:36:37;2.13;;;1.57;;
37477;SDS011;23334;54.316;10.182;2023-04-12T14:39:02;1.90;;;1.80;;
37477;SDS011;23334;54.316;10.182;2023-04-12T14:41:29;2.23;;;1.63;;
37477;SDS011;23334;54.316;10.182;2023-04-12T14:43:55;1.83;;;1.73;;
37477;SDS011;23334;54.316;10.182;2023-04-12T14:46:21;4.53;;;1.67;;
37477;SDS011;23334;54.316;10.182;2023-04-12T14:48:47;4.33;;;1.80;;
37477;SDS011;23334;54.316;10.182;2023-04-12T14:51:12;2.27;;;1.80;;
37477;SDS011;23334;54.316;10.182;2023-04-12T14:53:39;2.13;;;1.50;;
37477;SDS011;23334;54.316;10.182;2023-04-12T14:56:15;1.83;;;1.40;;